sensor_id;sensor_type;location;lat;lon;timestamp;P1;P2;P0
50827;PMS7003;36804;40.218;116.442;2022-12-20T00:02:59;26.25;10.00;6.00
50827;PMS7003;36804;40.218;116.442;2022-12-20T00:08:04;27.75;10.00;7.00
50827;PMS7003;36804;40.218;116.442;2022-12-20T00:13:09;28.50;11.50;8.00
50827;PMS7003;36804;40.218;116.442;2022-12-20T00:18:13;28.75;10.00;6.25
50827;PMS7003;36804;40.218;116.442;2022-12-20T00:23:18;26.50;12.50;7.00
50827;PMS7003;36804;40.218;116.442;2022-12-20T00:28:22;35.75;16.00;10.00
50827;PMS7003;36804;40.218;116.442;2022-12-20T00:33:27;32.25;11.50;6.75
50827;PMS7003;36804;40.218;116.442;2022-12-20T00:38:32;36.50;12.00;8.00
50827;PMS7003;36804;40.218;116.442;2022-12-20T00:43:37;27.50;11.75;8.00
50827;PMS7003;36804;40.218;116.442;2022-12-20T00:48:43;30.75;12.00;6.25
50827;PMS7003;36804;40.218;116.442;2022-12-20T00:53:48;30.00;11.00;6.75
50827;PMS7003;36804;40.218;116.442;2022-12-20T00:58:52;35.00;14.50;8.25
50827;PMS7003;36804;40.218;116.442;2022-12-20T01:03:57;30.50;14.00;6.00
50827;PMS7003;36804;40.218;116.442;2022-12-20T01:09:02;29.75;15.00;8.00
50827;PMS7003;36804;40.218;116.442;2022-12-20T01:14:11;33.25;14.50;9.25
50827;PMS7003;36804;40.218;116.442;2022-12-20T01:19:17;28.25;11.00;5.00
50827;PMS7003;36804;40.218;116.442;2022-12-20T01:24:21;29.75;12.50;7.25
50827;PMS7003;36804;40.218;116.442;2022-12-20T01:29:26;29.00;13.50;7.50
50827;PMS7003;36804;40.218;116.442;2022-12-20T01:34:30;28.00;12.25;7.50
50827;PMS7003;36804;40.218;116.442;2022-12-20T01:39:34;30.75;13.00;6.50
50827;PMS7003;36804;40.218;116.442;2022-12-20T01:49:46;34.00;16.25;7.00
50827;PMS7003;36804;40.218;116.442;2022-12-20T01:55:15;30.00;13.25;9.75
50827;PMS7003;36804;40.218;116.442;2022-12-20T02:00:18;27.75;9.75;6.00
50827;PMS7003;36804;40.218;116.442;2022-12-20T02:05:23;28.00;8.25;6.25
50827;PMS7003;36804;40.218;116.442;2022-12-20T02:10:30;31.75;10.25;5.00
50827;PMS7003;36804;40.218;116.442;2022-12-20T02:20:58;26.50;11.00;6.00
50827;PMS7003;36804;40.218;116.442;2022-12-20T02:31:20;29.25;9.00;5.25
50827;PMS7003;36804;40.218;116.442;2022-12-20T02:36:28;31.75;10.50;5.50
50827;PMS7003;36804;40.218;116.442;2022-12-20T02:41:36;31.00;9.75;5.50
50827;PMS7003;36804;40.218;116.442;2022-12-20T02:46:42;31.00;9.75;4.50
50827;PMS7003;36804;40.218;116.442;2022-12-20T02:51:47;30.00;11.50;6.75
50827;PMS7003;36804;40.218;116.442;2022-12-20T02:56:59;31.00;15.25;8.50
50827;PMS7003;36804;40.218;116.442;2022-12-20T03:02:04;28.75;11.75;6.00
50827;PMS7003;36804;40.218;116.442;2022-12-20T03:07:11;27.25;10.00;5.75
50827;PMS7003;36804;40.218;116.442;2022-12-20T03:12:16;26.00;10.00;5.00
50827;PMS7003;36804;40.218;116.442;2022-12-20T03:17:20;27.25;10.00;6.00
50827;PMS7003;36804;40.218;116.442;2022-12-20T03:22:24;31.00;14.50;5.75
50827;PMS7003;36804;40.218;116.442;2022-12-20T03:27:29;24.75;8.25;4.25
50827;PMS7003;36804;40.218;116.442;2022-12-20T03:32:34;25.00;10.50;5.25
50827;PMS7003;36804;40.218;116.442;2022-12-20T03:37:40;41.25;16.25;6.50
50827;PMS7003;36804;40.218;116.442;2022-12-20T03:42:45;26.50;7.50;5.00
50827;PMS7003;36804;40.218;116.442;2022-12-20T03:47:49;29.00;13.75;8.25
50827;PMS7003;36804;40.218;116.442;2022-12-20T03:52:53;30.50;11.00;5.50
50827;PMS7003;36804;40.218;116.442;2022-12-20T03:57:59;31.75;8.75;5.25
50827;PMS7003;36804;40.218;116.442;2022-12-20T04:03:07;25.75;11.75;6.50
50827;PMS7003;36804;40.218;116.442;2022-12-20T04:08:12;22.75;9.50;5.75
50827;PMS7003;36804;40.218;116.442;2022-12-20T04:13:17;35.25;12.00;7.00
50827;PMS7003;36804;40.218;116.442;2022-12-20T04:18:22;36.00;14.25;6.00
50827;PMS7003;36804;40.218;116.442;2022-12-20T04:23:27;42.50;16.50;7.00
50827;PMS7003;36804;40.218;116.442;2022-12-20T04:28:33;34.75;15.25;7.00
50827;PMS7003;36804;40.218;116.442;2022-12-20T04:33:40;43.25;17.00;9.00
50827;PMS7003;36804;40.218;116.442;2022-12-20T04:38:45;38.00;13.25;7.50
50827;PMS7003;36804;40.218;116.442;2022-12-20T04:43:50;32.25;16.25;6.00
50827;PMS7003;36804;40.218;116.442;2022-12-20T04:48:57;32.75;13.00;7.25
50827;PMS7003;36804;40.218;116.442;2022-12-20T04:54:05;40.00;16.00;7.25
50827;PMS7003;36804;40.218;116.442;2022-12-20T04:59:18;35.00;11.25;5.75
50827;PMS7003;36804;40.218;116.442;2022-12-20T05:04:27;33.25;13.75;7.75
50827;PMS7003;36804;40.218;116.442;2022-12-20T05:09:39;36.50;15.00;6.00
50827;PMS7003;36804;40.218;116.442;2022-12-20T05:14:44;37.50;13.25;6.75
50827;PMS7003;36804;40.218;116.442;2022-12-20T05:19:55;35.00;13.00;8.75
50827;PMS7003;36804;40.218;116.442;2022-12-20T05:24:59;36.25;12.75;5.75
50827;PMS7003;36804;40.218;116.442;2022-12-20T09:51:42;58.00;34.25;21.50
50827;PMS7003;36804;40.218;116.442;2022-12-20T10:02:11;57.25;35.00;20.50
50827;PMS7003;36804;40.218;116.442;2022-12-20T10:13:17;58.75;31.50;19.00
50827;PMS7003;36804;40.218;116.442;2022-12-20T10:28:34;57.75;35.25;21.00
50827;PMS7003;36804;40.218;116.442;2022-12-20T10:33:39;63.75;39.75;22.75
50827;PMS7003;36804;40.218;116.442;2022-12-20T10:38:44;60.75;36.50;20.25
50827;PMS7003;36804;40.218;116.442;2022-12-20T10:49:03;65.50;38.50;21.00
50827;PMS7003;36804;40.218;116.442;2022-12-20T10:54:27;67.25;40.50;23.50
50827;PMS7003;36804;40.218;116.442;2022-12-20T10:59:33;63.00;37.50;22.00
50827;PMS7003;36804;40.218;116.442;2022-12-20T11:04:40;59.00;35.25;20.25
50827;PMS7003;36804;40.218;116.442;2022-12-20T11:09:57;59.25;37.25;21.00
50827;PMS7003;36804;40.218;116.442;2022-12-20T11:15:22;55.50;34.75;19.00
50827;PMS7003;36804;40.218;116.442;2022-12-20T11:20:37;58.50;34.75;21.00
50827;PMS7003;36804;40.218;116.442;2022-12-20T11:36:04;52.00;30.75;17.75
50827;PMS7003;36804;40.218;116.442;2022-12-20T11:51:45;58.75;34.25;19.00
50827;PMS7003;36804;40.218;116.442;2022-12-20T11:56:51;57.50;35.00;20.00
50827;PMS7003;36804;40.218;116.442;2022-12-20T12:02:01;57.00;29.25;16.25
50827;PMS7003;36804;40.218;116.442;2022-12-20T12:07:18;48.25;28.75;17.25
50827;PMS7003;36804;40.218;116.442;2022-12-20T12:12:28;53.25;29.50;15.75
50827;PMS7003;36804;40.218;116.442;2022-12-20T12:22:51;50.25;24.25;13.50
50827;PMS7003;36804;40.218;116.442;2022-12-20T12:27:59;53.75;30.00;14.00
50827;PMS7003;36804;40.218;116.442;2022-12-20T12:33:06;44.00;27.25;15.00
50827;PMS7003;36804;40.218;116.442;2022-12-20T12:54:02;42.75;20.50;10.25
50827;PMS7003;36804;40.218;116.442;2022-12-20T13:04:51;37.00;15.50;9.00
50827;PMS7003;36804;40.218;116.442;2022-12-20T13:09:54;36.75;11.75;7.00
50827;PMS7003;36804;40.218;116.442;2022-12-20T13:14:58;31.25;15.00;10.00
50827;PMS7003;36804;40.218;116.442;2022-12-20T13:20:14;37.00;14.00;7.00
50827;PMS7003;36804;40.218;116.442;2022-12-20T13:25:28;34.00;15.25;9.00
50827;PMS7003;36804;40.218;116.442;2022-12-20T13:30:33;35.25;13.50;9.25
50827;PMS7003;36804;40.218;116.442;2022-12-20T13:35:53;30.50;14.50;7.00
50827;PMS7003;36804;40.218;116.442;2022-12-20T13:40:58;32.50;15.00;8.00
50827;PMS7003;36804;40.218;116.442;2022-12-20T13:51:08;30.75;14.50;7.00
50827;PMS7003;36804;40.218;116.442;2022-12-20T14:01:35;26.00;11.25;5.00
50827;PMS7003;36804;40.218;116.442;2022-12-20T14:06:40;27.00;10.00;6.00
50827;PMS7003;36804;40.218;116.442;2022-12-20T14:11:45;22.75;7.75;5.25
50827;PMS7003;36804;40.218;116.442;2022-12-20T14:16:51;31.25;9.25;6.00
50827;PMS7003;36804;40.218;116.442;2022-12-20T14:21:56;25.00;8.50;5.75
50827;PMS7003;36804;40.218;116.442;2022-12-20T14:27:00;26.75;11.25;6.25
50827;PMS7003;36804;40.218;116.442;2022-12-20T14:32:05;31.25;11.00;5.00
50827;PMS7003;36804;40.218;116.442;2022-12-20T14:42:36;23.50;6.50;5.00
50827;PMS7003;36804;40.218;116.442;2022-12-20T14:47:49;28.50;12.25;4.25
50827;PMS7003;36804;40.218;116.442;2022-12-20T14:52:54;26.25;10.75;5.50
50827;PMS7003;36804;40.218;116.442;2022-12-20T14:57:59;27.75;10.50;4.25
50827;PMS7003;36804;40.218;116.442;2022-12-20T15:03:13;29.50;9.75;5.50
50827;PMS7003;36804;40.218;116.442;2022-12-20T15:13:39;22.25;9.50;4.00
50827;PMS7003;36804;40.218;116.442;2022-12-20T15:18:46;28.50;10.00;4.00
50827;PMS7003;36804;40.218;116.442;2022-12-20T15:23:51;30.50;10.50;4.25
50827;PMS7003;36804;40.218;116.442;2022-12-20T15:28:57;22.75;7.25;4.25
50827;PMS7003;36804;40.218;116.442;2022-12-20T15:34:03;18.50;5.50;3.75
50827;PMS7003;36804;40.218;116.442;2022-12-20T15:39:15;23.25;7.25;4.50
50827;PMS7003;36804;40.218;116.442;2022-12-20T15:44:25;21.00;5.50;3.25
50827;PMS7003;36804;40.218;116.442;2022-12-20T15:49:31;21.00;8.25;4.00
50827;PMS7003;36804;40.218;116.442;2022-12-20T15:54:36;23.75;8.00;4.25
50827;PMS7003;36804;40.218;116.442;2022-12-20T15:59:41;24.00;6.00;3.00
50827;PMS7003;36804;40.218;116.442;2022-12-20T16:05:13;23.50;7.25;4.50
50827;PMS7003;36804;40.218;116.442;2022-12-20T16:10:18;24.75;8.75;3.00
50827;PMS7003;36804;40.218;116.442;2022-12-20T16:15:24;25.50;9.00;5.00
50827;PMS7003;36804;40.218;116.442;2022-12-20T16:20:29;27.50;9.25;5.00
50827;PMS7003;36804;40.218;116.442;2022-12-20T16:25:35;23.75;9.50;5.75
50827;PMS7003;36804;40.218;116.442;2022-12-20T16:30:40;23.75;9.50;5.50
50827;PMS7003;36804;40.218;116.442;2022-12-20T16:35:52;30.25;10.00;5.75
50827;PMS7003;36804;40.218;116.442;2022-12-20T16:40:57;30.75;13.25;6.00
50827;PMS7003;36804;40.218;116.442;2022-12-20T16:46:16;26.25;13.00;6.00
50827;PMS7003;36804;40.218;116.442;2022-12-20T16:56:27;27.25;11.75;7.75
50827;PMS7003;36804;40.218;116.442;2022-12-20T17:01:33;42.50;14.00;6.75
50827;PMS7003;36804;40.218;116.442;2022-12-20T17:06:39;36.25;12.25;6.00
50827;PMS7003;36804;40.218;116.442;2022-12-20T17:11:44;32.50;14.00;7.25
50827;PMS7003;36804;40.218;116.442;2022-12-20T17:16:49;28.50;12.75;7.00
50827;PMS7003;36804;40.218;116.442;2022-12-20T17:21:54;37.25;15.25;7.25
50827;PMS7003;36804;40.218;116.442;2022-12-20T17:27:15;37.00;17.00;8.00
50827;PMS7003;36804;40.218;116.442;2022-12-20T17:32:20;31.25;14.25;8.00
50827;PMS7003;36804;40.218;116.442;2022-12-20T17:37:25;35.50;13.00;6.25
50827;PMS7003;36804;40.218;116.442;2022-12-20T17:42:30;30.75;15.00;6.00
50827;PMS7003;36804;40.218;116.442;2022-12-20T17:47:35;39.00;14.00;6.50
50827;PMS7003;36804;40.218;116.442;2022-12-20T17:52:40;43.00;15.75;7.25
50827;PMS7003;36804;40.218;116.442;2022-12-20T17:57:45;43.75;12.50;6.50
50827;PMS7003;36804;40.218;116.442;2022-12-20T18:02:50;34.75;14.50;7.50
50827;PMS7003;36804;40.218;116.442;2022-12-20T18:07:56;36.25;18.00;6.75
50827;PMS7003;36804;40.218;116.442;2022-12-20T18:13:01;37.50;17.75;7.50
50827;PMS7003;36804;40.218;116.442;2022-12-20T18:18:05;42.75;18.50;6.75
50827;PMS7003;36804;40.218;116.442;2022-12-20T18:23:10;34.50;13.75;7.00
50827;PMS7003;36804;40.218;116.442;2022-12-20T18:28:14;36.75;15.00;7.25
50827;PMS7003;36804;40.218;116.442;2022-12-20T18:33:19;41.00;16.75;6.50
50827;PMS7003;36804;40.218;116.442;2022-12-20T18:38:23;35.75;17.50;8.25
50827;PMS7003;36804;40.218;116.442;2022-12-20T18:43:28;29.00;15.00;7.75
50827;PMS7003;36804;40.218;116.442;2022-12-20T18:48:33;37.00;16.50;8.00
50827;PMS7003;36804;40.218;116.442;2022-12-20T18:53:39;33.25;15.25;8.00
50827;PMS7003;36804;40.218;116.442;2022-12-20T18:58:44;36.00;15.50;6.75
50827;PMS7003;36804;40.218;116.442;2022-12-20T19:03:51;47.25;16.25;8.75
50827;PMS7003;36804;40.218;116.442;2022-12-20T19:08:55;29.75;12.75;6.50
50827;PMS7003;36804;40.218;116.442;2022-12-20T19:14:01;37.00;13.75;6.75
50827;PMS7003;36804;40.218;116.442;2022-12-20T19:19:06;31.00;12.75;6.50
50827;PMS7003;36804;40.218;116.442;2022-12-20T19:24:11;26.00;11.00;5.25
50827;PMS7003;36804;40.218;116.442;2022-12-20T19:29:16;28.25;11.75;5.75
50827;PMS7003;36804;40.218;116.442;2022-12-20T19:34:21;30.50;14.00;6.00
50827;PMS7003;36804;40.218;116.442;2022-12-20T19:39:25;31.50;14.25;5.75
50827;PMS7003;36804;40.218;116.442;2022-12-20T19:44:31;32.25;14.25;6.50
50827;PMS7003;36804;40.218;116.442;2022-12-20T19:49:35;32.25;12.50;5.75
50827;PMS7003;36804;40.218;116.442;2022-12-20T19:54:40;32.75;12.25;6.00
50827;PMS7003;36804;40.218;116.442;2022-12-20T19:59:46;34.75;14.50;5.00
50827;PMS7003;36804;40.218;116.442;2022-12-20T20:04:57;31.25;15.50;6.50
50827;PMS7003;36804;40.218;116.442;2022-12-20T20:10:01;29.25;11.25;5.50
50827;PMS7003;36804;40.218;116.442;2022-12-20T20:15:06;25.25;7.75;4.00
50827;PMS7003;36804;40.218;116.442;2022-12-20T20:20:10;34.25;13.25;5.75
50827;PMS7003;36804;40.218;116.442;2022-12-20T20:25:15;27.75;13.75;6.00
50827;PMS7003;36804;40.218;116.442;2022-12-20T20:30:21;28.50;10.75;6.00
50827;PMS7003;36804;40.218;116.442;2022-12-20T20:35:26;27.00;9.00;4.75
50827;PMS7003;36804;40.218;116.442;2022-12-20T20:40:30;31.00;13.50;7.00
50827;PMS7003;36804;40.218;116.442;2022-12-20T20:45:35;25.00;12.00;5.00
50827;PMS7003;36804;40.218;116.442;2022-12-20T20:50:40;27.25;11.00;5.25
50827;PMS7003;36804;40.218;116.442;2022-12-20T20:55:45;33.00;14.00;7.00
50827;PMS7003;36804;40.218;116.442;2022-12-20T21:00:50;30.25;12.50;5.00
50827;PMS7003;36804;40.218;116.442;2022-12-20T21:05:55;27.25;12.50;6.00
50827;PMS7003;36804;40.218;116.442;2022-12-20T21:11:20;25.50;10.50;5.75
50827;PMS7003;36804;40.218;116.442;2022-12-20T21:16:24;27.00;12.25;5.75
50827;PMS7003;36804;40.218;116.442;2022-12-20T21:21:29;26.75;8.75;5.00
50827;PMS7003;36804;40.218;116.442;2022-12-20T21:26:33;26.50;11.50;5.50
50827;PMS7003;36804;40.218;116.442;2022-12-20T21:31:38;23.00;9.00;5.00
50827;PMS7003;36804;40.218;116.442;2022-12-20T21:36:42;26.00;10.50;5.00
50827;PMS7003;36804;40.218;116.442;2022-12-20T21:41:48;23.00;8.75;4.00
50827;PMS7003;36804;40.218;116.442;2022-12-20T21:46:58;25.75;12.50;7.00
50827;PMS7003;36804;40.218;116.442;2022-12-20T21:52:02;30.00;10.75;4.75
50827;PMS7003;36804;40.218;116.442;2022-12-20T21:57:08;32.25;12.50;5.00
50827;PMS7003;36804;40.218;116.442;2022-12-20T22:02:13;25.75;10.75;5.25
50827;PMS7003;36804;40.218;116.442;2022-12-20T22:07:17;26.50;12.00;6.00
50827;PMS7003;36804;40.218;116.442;2022-12-20T22:12:23;24.00;11.00;3.75
50827;PMS7003;36804;40.218;116.442;2022-12-20T22:17:28;29.25;12.00;7.00
50827;PMS7003;36804;40.218;116.442;2022-12-20T22:22:32;27.25;11.75;7.00
50827;PMS7003;36804;40.218;116.442;2022-12-20T22:27:37;27.50;10.25;5.50
50827;PMS7003;36804;40.218;116.442;2022-12-20T22:32:42;33.75;14.50;8.00
50827;PMS7003;36804;40.218;116.442;2022-12-20T22:37:46;26.75;11.50;6.00
50827;PMS7003;36804;40.218;116.442;2022-12-20T22:42:51;29.25;10.50;6.00
50827;PMS7003;36804;40.218;116.442;2022-12-20T22:47:56;26.50;12.25;5.00
50827;PMS7003;36804;40.218;116.442;2022-12-20T22:53:02;27.00;10.50;5.25
50827;PMS7003;36804;40.218;116.442;2022-12-20T22:58:07;28.50;11.25;5.25
50827;PMS7003;36804;40.218;116.442;2022-12-20T23:03:11;29.00;13.50;5.00
50827;PMS7003;36804;40.218;116.442;2022-12-20T23:08:16;23.25;8.25;5.00
50827;PMS7003;36804;40.218;116.442;2022-12-20T23:13:20;25.25;12.75;5.25
50827;PMS7003;36804;40.218;116.442;2022-12-20T23:18:43;26.25;8.50;5.00
50827;PMS7003;36804;40.218;116.442;2022-12-20T23:23:47;26.50;10.25;3.75
50827;PMS7003;36804;40.218;116.442;2022-12-20T23:28:57;22.25;5.50;3.75
50827;PMS7003;36804;40.218;116.442;2022-12-20T23:34:02;22.00;8.25;4.25
50827;PMS7003;36804;40.218;116.442;2022-12-20T23:39:07;20.00;5.25;3.50
50827;PMS7003;36804;40.218;116.442;2022-12-20T23:44:11;23.00;10.00;4.25
50827;PMS7003;36804;40.218;116.442;2022-12-20T23:49:17;27.00;7.00;3.00
50827;PMS7003;36804;40.218;116.442;2022-12-20T23:54:22;24.50;7.25;4.00
50827;PMS7003;36804;40.218;116.442;2022-12-20T23:59:26;24.00;7.25;4.00
